Issaquah, WA

3:38 PM PDT on September 27, 2016 (GMT -0700)
Horizon View | | Change Station

Elev 1099 ft 47.55 °N, 122.14 °W | Updated 1 second ago

Clear
Clear
67.8 °F
Feels Like 67.8 °F
N
7.3
Wind Variable Wind from NW

Today
High -- | Low -- °F
--% Chance of Precip.
Yesterday
High -- | Low -- °F
Precip. -- in
Pressure 30.17 in
Visibility 10.0 miles
Clouds Clear
Dew Point 47 °F
Humidity 48%
Rainfall 0.00 in
Snow Depth Not available.
7:03 AM 6:54 PM
Waning Crescent, 9% visible
METAR KRNT 272153Z 30012KT 10SM CLR 21/09 A3016 RMK AO2 SLP217 T02060089
Pressure 30.17 in
Visibility 10.0 miles
Clouds Clear
Dew Point 47 °F
Humidity 48%
Rainfall 0.00 in
Snow Depth Not available.
7:03 AM 6:54 PM
Waning Crescent, 9% visible
METAR KRNT 272153Z 30012KT 10SM CLR 21/09 A3016 RMK AO2 SLP217 T02060089

10-Day Weather Forecast

Almanac

Astronomy

Sep. 27, 2016 Rise Set
Actual Time
Civil Twilight
Nautical Twilight
Astronomical Twilight
Moon
Length of Visible Light
Length of Day
Tomorrow will be .
, % of the Moon is Illuminated

Today's Extremes

State Highs State Lows

Community

WunderPhotos

Upload Photos

1,942,173 photos uploaded!

WunderBlog® & News

Nearby

Air Quality

  Air Quality AQ Index Pollutant
Not available.

Snow Depth

Station Depth Elevation

Earthquake Activity

City Distance Mag. Time & Date
Minimum magnitude displayed is 2.5.

Coastal Water Temperatures

Place Temperature

Stations

Nearby Weather Stations

Station Location Temp. Windchill Dew Point Humidity Wind Precip. Elev Updated Type
                   

Watches & Warnings

There are currently no watches in effect.